Time;durP1;ratioP1;P1;durP2;ratioP2;P2;SDS_P1;SDS_P2;PMS_P1;PMS_P2;Temp;Humidity;BMP_temperature;BMP_pressure;BME280_temperature;BME280_humidity;BME280_pressure;Samples;Min_cycle;Max_cycle;Signal;HPM_P1;HPM_P2
2021/11/01 00:00:10;;;;;;;26.10;6.13;;;22.80;56.80;;;;;;5202612;28;20056;-68
2021/11/01 00:02:44;;;;;;;23.02;5.38;;;22.80;56.30;;;;;;5200305;28;20056;-68
2021/11/01 00:05:18;;;;;;;23.05;5.30;;;22.80;56.30;;;;;;5200579;28;20056;-68
2021/11/01 00:07:51;;;;;;;17.08;5.78;;;22.80;56.40;;;;;;5198754;28;20064;-68
2021/11/01 00:10:23;;;;;;;18.33;5.78;;;22.80;56.40;;;;;;5199947;28;20068;-68
2021/11/01 00:12:56;;;;;;;18.42;5.60;;;22.80;56.40;;;;;;5201876;28;20049;-68
2021/11/01 00:15:29;;;;;;;17.95;4.90;;;22.80;56.50;;;;;;5190596;28;20544;-68
2021/11/01 00:18:01;;;;;;;21.42;5.15;;;22.80;56.50;;;;;;5197005;28;20049;-68
2021/11/01 00:20:34;;;;;;;16.37;5.27;;;22.80;56.50;;;;;;5200414;28;20260;-68
2021/11/01 00:23:06;;;;;;;14.50;6.00;;;22.80;56.50;;;;;;5202183;28;20295;-67
2021/11/01 00:25:39;;;;;;;23.58;4.63;;;22.80;56.50;;;;;;5202351;28;20045;-68
2021/11/01 00:28:11;;;;;;;22.90;5.32;;;22.70;56.50;;;;;;5201666;28;20498;-68
2021/11/01 00:30:44;;;;;;;11.75;5.22;;;22.70;56.50;;;;;;5205112;28;20041;-68
2021/11/01 00:33:16;;;;;;;19.30;4.97;;;22.70;56.50;;;;;;5203928;28;20053;-68
2021/11/01 00:35:49;;;;;;;15.25;5.30;;;22.70;56.60;;;;;;5205848;28;20489;-68
2021/11/01 00:38:22;;;;;;;21.63;5.30;;;22.70;56.50;;;;;;5203768;28;20042;-68
2021/11/01 00:40:54;;;;;;;16.52;4.72;;;22.70;56.60;;;;;;5202509;28;20049;-68
2021/11/01 00:43:27;;;;;;;13.50;4.95;;;22.70;56.60;;;;;;5204818;28;20056;-68
2021/11/01 00:45:59;;;;;;;15.03;5.00;;;22.70;56.60;;;;;;5203040;28;20156;-68
2021/11/01 00:48:32;;;;;;;16.92;4.75;;;22.80;56.70;;;;;;5206698;28;20045;-68
2021/11/01 00:51:05;;;;;;;14.45;5.10;;;22.80;56.70;;;;;;5200172;28;20056;-68
2021/11/01 00:53:46;;;;;;;21.83;4.97;;;22.70;56.60;;;;;;5198191;28;20480;-67
2021/11/01 00:56:19;;;;;;;18.60;5.20;;;22.70;56.80;;;;;;5200195;28;20049;-67
2021/11/01 00:58:52;;;;;;;20.88;6.07;;;22.80;56.70;;;;;;5203943;28;20468;-68
2021/11/01 01:01:24;;;;;;;19.47;5.03;;;22.80;56.70;;;;;;5196386;28;20526;-68
2021/11/01 01:03:57;;;;;;;13.93;4.70;;;22.80;56.70;;;;;;5195827;28;20044;-68
2021/11/01 01:06:29;;;;;;;16.25;5.00;;;22.80;56.80;;;;;;5201623;28;20092;-68
2021/11/01 01:09:02;;;;;;;13.10;5.15;;;22.80;56.80;;;;;;5202778;28;20485;-67
2021/11/01 01:11:35;;;;;;;12.80;4.47;;;22.70;56.70;;;;;;5189766;28;20772;-68
2021/11/01 01:14:07;;;;;;;12.38;4.55;;;22.70;56.70;;;;;;5200831;28;20965;-68
2021/11/01 01:16:43;;;;;;;13.77;5.32;;;22.70;56.70;;;;;;5199878;28;20037;-68
2021/11/01 01:19:19;;;;;;;22.80;5.07;;;22.70;57.30;;;;;;5201112;28;20041;-68
2021/11/01 01:24:42;;;;;;;13.23;5.22;;;22.70;56.70;;;;;;5201925;28;20056;-68
2021/11/01 01:27:14;;;;;;;12.27;4.90;;;22.70;56.70;;;;;;5203729;28;20577;-68
2021/11/01 01:29:47;;;;;;;15.30;4.25;;;22.70;56.70;;;;;;5198538;28;20057;-67
2021/11/01 01:32:19;;;;;;;8.90;4.27;;;22.70;56.60;;;;;;5203712;28;20053;-67
2021/11/01 01:34:52;;;;;;;10.18;4.43;;;22.70;56.60;;;;;;5204102;28;20524;-68
2021/11/01 01:37:24;;;;;;;11.07;5.05;;;22.70;56.60;;;;;;5197693;28;20548;-68
2021/11/01 01:39:57;;;;;;;7.97;4.68;;;22.70;56.60;;;;;;5203034;28;20052;-69
2021/11/01 01:42:29;;;;;;;11.88;4.00;;;22.70;56.70;;;;;;5202094;28;20527;-68
2021/11/01 01:45:04;;;;;;;15.30;4.35;;;22.70;56.70;;;;;;5204999;28;20820;-69
2021/11/01 01:47:40;;;;;;;9.60;3.83;;;22.70;56.70;;;;;;5204778;28;20036;-69
2021/11/01 01:50:15;;;;;;;9.70;4.22;;;22.70;56.70;;;;;;5200997;28;20047;-69
2021/11/01 01:52:49;;;;;;;7.50;4.57;;;22.70;56.70;;;;;;5200438;28;20410;-69
2021/11/01 01:55:22;;;;;;;8.93;3.72;;;22.70;56.70;;;;;;5205112;28;20121;-69
2021/11/01 01:57:54;;;;;;;8.40;4.60;;;22.70;56.70;;;;;;5202817;28;20056;-68
2021/11/01 02:03:22;;;;;;;8.23;3.75;;;22.70;56.70;;;;;;5204042;28;20068;-69
2021/11/01 02:06:03;;;;;;;9.45;4.25;;;22.70;56.70;;;;;;5202075;28;20065;-68
2021/11/01 02:08:44;;;;;;;9.48;4.07;;;22.70;56.80;;;;;;5206108;28;20060;-69
2021/11/01 02:11:22;;;;;;;6.13;3.50;;;22.70;56.80;;;;;;5204152;28;20068;-69
2021/11/01 02:13:57;;;;;;;8.10;3.90;;;22.70;56.80;;;;;;5201826;28;20048;-67
2021/11/01 02:16:32;;;;;;;10.30;4.18;;;22.70;56.90;;;;;;5205774;28;20055;-68
2021/11/01 02:19:10;;;;;;;12.40;4.22;;;22.70;56.90;;;;;;5203623;28;20394;-68
2021/11/01 02:21:42;;;;;;;8.65;4.13;;;22.70;56.90;;;;;;5203505;28;20615;-68
2021/11/01 02:24:23;;;;;;;10.13;4.37;;;22.70;56.90;;;;;;5202557;28;20043;-68
2021/11/01 02:26:56;;;;;;;11.13;3.72;;;22.70;56.90;;;;;;5200847;28;20052;-68
2021/11/01 02:29:30;;;;;;;9.52;4.47;;;22.70;57.10;;;;;;5200859;28;20064;-68
2021/11/01 02:32:04;;;;;;;7.68;3.38;;;22.60;57.00;;;;;;5201790;28;20056;-68
2021/11/01 02:34:36;;;;;;;;;;;22.60;57.00;;;;;;5203712;28;20049;-68
2021/11/01 02:37:09;;;;;;;7.80;4.50;;;22.60;57.10;;;;;;5198387;28;19925;-68
2021/11/01 02:39:46;;;;;;;7.72;3.83;;;22.60;57.00;;;;;;5200510;28;20088;-69
2021/11/01 02:42:20;;;;;;;7.38;3.70;;;22.60;57.10;;;;;;5199579;28;20690;-68
2021/11/01 02:45:05;;;;;;;9.23;3.97;;;22.60;57.10;;;;;;5202823;28;20414;-68
2021/11/01 02:47:39;;;;;;;7.68;4.03;;;22.60;57.10;;;;;;5199747;28;20049;-68
2021/11/01 02:50:14;;;;;;;7.15;3.88;;;22.60;57.20;;;;;;5200092;28;20052;-68
2021/11/01 02:52:47;;;;;;;8.90;3.55;;;22.60;57.10;;;;;;5199448;28;20401;-67
2021/11/01 02:55:21;;;;;;;8.23;3.45;;;22.60;57.10;;;;;;5200274;28;20555;-68
2021/11/01 02:57:53;;;;;;;;;;;22.60;57.10;;;;;;5201249;28;20504;-68
2021/11/01 03:00:28;;;;;;;7.68;3.92;;;22.60;57.10;;;;;;5203281;28;21666;-68
2021/11/01 03:03:05;;;;;;;7.88;3.60;;;22.60;57.10;;;;;;5200806;28;20037;-68
2021/11/01 03:05:39;;;;;;;5.72;3.00;;;22.60;57.10;;;;;;5202934;28;20049;-68
2021/11/01 03:08:12;;;;;;;12.43;4.32;;;22.60;57.10;;;;;;5187741;28;20623;-68
2021/11/01 03:10:44;;;;;;;8.10;3.92;;;22.60;57.10;;;;;;5201975;28;20059;-68
2021/11/01 03:13:17;;;;;;;7.45;3.22;;;22.60;57.10;;;;;;5202837;28;20045;-68
2021/11/01 03:15:50;;;;;;;7.10;3.42;;;22.60;57.10;;;;;;5203009;28;20044;-68
2021/11/01 03:18:26;;;;;;;7.33;3.60;;;22.60;57.10;;;;;;5200797;28;20049;-68
2021/11/01 03:21:01;;;;;;;10.52;3.17;;;22.60;57.10;;;;;;5199904;28;20059;-68
2021/11/01 03:23:34;;;;;;;;;;;22.60;57.10;;;;;;5201319;28;20060;-68
2021/11/01 03:26:11;;;;;;;5.22;3.25;;;22.60;57.20;;;;;;5186127;28;19924;-68
2021/11/01 03:28:48;;;;;;;7.32;3.33;;;22.60;57.20;;;;;;5203434;28;20045;-68
2021/11/01 03:31:23;;;;;;;7.43;2.90;;;22.60;57.10;;;;;;5204271;28;20077;-68
2021/11/01 03:33:57;;;;;;;4.28;2.92;;;22.60;57.70;;;;;;5202586;28;20053;-68
2021/11/01 03:36:31;;;;;;;5.90;3.50;;;22.60;57.70;;;;;;5203661;28;20052;-69
2021/11/01 03:39:10;;;;;;;4.13;2.97;;;22.60;57.10;;;;;;5203600;28;20045;-68
2021/11/01 03:41:43;;;;;;;5.97;3.13;;;22.60;57.20;;;;;;5201898;28;20494;-68
2021/11/01 03:44:19;;;;;;;5.75;3.30;;;22.60;57.20;;;;;;5202380;28;20096;-68
2021/11/01 03:46:55;;;;;;;5.45;3.47;;;22.60;57.20;;;;;;5200148;28;20041;-67
2021/11/01 03:49:30;;;;;;;6.50;3.08;;;22.60;57.20;;;;;;5201238;28;20041;-69
2021/11/01 03:52:16;;;;;;;5.05;2.95;;;22.60;57.20;;;;;;5201781;28;20068;-68
2021/11/01 03:54:51;;;;;;;5.05;2.88;;;22.60;57.20;;;;;;5198698;28;20045;-68
2021/11/01 03:57:24;;;;;;;7.53;3.47;;;22.60;57.20;;;;;;5200400;28;20044;-68
2021/11/01 03:59:56;;;;;;;7.68;3.08;;;22.60;57.20;;;;;;5198363;28;20520;-68
2021/11/01 04:02:29;;;;;;;7.73;3.10;;;22.60;57.20;;;;;;5201889;28;20041;-68
2021/11/01 04:05:01;;;;;;;18.33;3.35;;;22.60;57.20;;;;;;5203383;28;20056;-67
2021/11/01 04:07:34;;;;;;;6.38;3.25;;;22.60;57.20;;;;;;5207251;28;20413;-68
2021/11/01 04:10:08;;;;;;;4.28;2.90;;;22.60;57.20;;;;;;5207750;28;20055;-68
2021/11/01 04:12:42;;;;;;;7.05;3.53;;;22.60;57.20;;;;;;5209643;28;20048;-68
2021/11/01 04:15:22;;;;;;;6.25;3.20;;;22.60;57.20;;;;;;5204364;28;20052;-67
2021/11/01 04:17:59;;;;;;;7.15;2.80;;;22.60;57.20;;;;;;5205627;28;20048;-68
2021/11/01 04:20:50;;;;;;;8.68;3.20;;;22.60;57.20;;;;;;5205841;28;20056;-68
2021/11/01 04:23:29;;;;;;;6.03;2.80;;;22.60;57.10;;;;;;5203840;28;20049;-67
2021/11/01 04:26:03;;;;;;;6.55;3.03;;;22.60;57.10;;;;;;5204697;28;20510;-68
2021/11/01 04:28:37;;;;;;;4.15;2.85;;;22.60;57.10;;;;;;5205570;28;20548;-68
2021/11/01 04:31:13;;;;;;;5.40;3.20;;;22.60;57.10;;;;;;5207579;28;20064;-68
2021/11/01 04:33:46;;;;;;;4.13;3.22;;;22.60;57.10;;;;;;5205727;28;20686;-68
2021/11/01 04:36:18;;;;;;;5.10;2.70;;;22.60;57.10;;;;;;5205069;28;20917;-68
2021/11/01 04:39:05;;;;;;;3.38;2.55;;;22.60;57.10;;;;;;5202881;28;20060;-68
2021/11/01 04:42:08;;;;;;;4.68;3.08;;;22.60;57.10;;;;;;5201691;28;20049;-68
2021/11/01 04:45:10;;;;;;;3.22;2.22;;;22.60;57.10;;;;;;5200019;28;20048;-68
2021/11/01 04:53:13;;;;;;;7.22;2.58;;;22.60;57.10;;;;;;5200308;28;20048;-68
2021/11/01 04:55:45;;;;;;;3.17;2.25;;;22.60;57.20;;;;;;5200304;28;20052;-68
2021/11/01 04:58:18;;;;;;;6.10;2.45;;;22.60;57.20;;;;;;5178152;28;20076;-68
2021/11/01 05:00:52;;;;;;;4.27;2.70;;;22.60;57.20;;;;;;5199669;28;20037;-67
2021/11/01 05:03:34;;;;;;;4.55;2.35;;;22.60;57.20;;;;;;5194598;28;20433;-68
2021/11/01 05:06:08;;;;;;;6.07;2.78;;;22.60;57.20;;;;;;5192893;28;20532;-66
2021/11/01 05:08:47;;;;;;;10.80;2.42;;;22.60;57.30;;;;;;5168148;28;20238;-66
2021/11/01 05:11:29;;;;;;;3.60;2.40;;;22.60;57.40;;;;;;5192579;28;20052;-66
2021/11/01 05:14:02;;;;;;;6.80;2.60;;;22.60;57.40;;;;;;5191547;28;20037;-66
2021/11/01 05:21:59;;;;;;;10.63;3.15;;;22.60;57.50;;;;;;5205049;28;20045;-66
2021/11/01 05:27:20;;;;;;;8.77;2.63;;;22.60;57.50;;;;;;5184002;28;20489;-66
2021/11/01 05:29:54;;;;;;;6.00;2.55;;;22.60;57.50;;;;;;5195417;28;20045;-66
2021/11/01 05:32:28;;;;;;;5.15;2.38;;;22.60;57.60;;;;;;5184451;28;20037;-67
2021/11/01 05:35:01;;;;;;;7.13;2.75;;;22.60;57.50;;;;;;5192390;28;20052;-69
2021/11/01 05:37:34;;;;;;;6.45;2.67;;;22.60;57.50;;;;;;5199311;28;20060;-69
2021/11/01 05:40:07;;;;;;;6.82;2.25;;;22.60;57.50;;;;;;5200892;28;20132;-68
2021/11/01 05:42:40;;;;;;;6.25;2.60;;;22.60;57.50;;;;;;5198310;28;20045;-68
2021/11/01 05:45:12;;;;;;;4.20;2.67;;;22.70;57.60;;;;;;5194314;28;20045;-68
2021/11/01 05:47:48;;;;;;;5.60;2.50;;;22.70;57.50;;;;;;5174892;28;20041;-68
2021/11/01 05:50:21;;;;;;;6.00;2.58;;;22.70;58.10;;;;;;5199777;28;20061;-69
2021/11/01 05:52:53;;;;;;;7.07;2.65;;;22.70;57.50;;;;;;5197834;28;20045;-68
2021/11/01 05:56:12;;;;;;;8.93;2.50;;;22.70;57.40;;;;;;5191246;28;20655;-68
2021/11/01 05:58:41;;;;;;;6.80;2.60;;;22.70;57.40;;;;;;5172283;28;20540;-68
2021/11/01 06:04:46;;;;;;;9.00;2.60;;;22.80;57.40;;;;;;5199306;28;20040;-68
2021/11/01 06:07:07;;;;;;;4.75;2.25;;;22.70;57.40;;;;;;5195804;28;20056;-68
2021/11/01 06:10:01;;;;;;;13.43;2.33;;;22.80;57.50;;;;;;5201434;28;20059;-67
2021/11/01 06:15:27;;;;;;;4.43;2.42;;;22.80;57.50;;;;;;5205960;28;20049;-68
2021/11/01 06:18:00;;;;;;;6.07;2.63;;;22.80;57.50;;;;;;5204314;28;20402;-69
2021/11/01 06:20:32;;;;;;;6.40;2.55;;;22.80;57.50;;;;;;5193855;28;20057;-68
2021/11/01 06:23:05;;;;;;;5.60;2.40;;;22.80;57.50;;;;;;5196133;28;20064;-68
2021/11/01 06:25:38;;;;;;;6.25;2.30;;;22.80;57.50;;;;;;5200726;28;20060;-68
2021/11/01 06:28:13;;;;;;;4.78;2.45;;;22.80;57.60;;;;;;5198164;28;20041;-68
2021/11/01 06:30:52;;;;;;;10.38;2.75;;;22.80;57.50;;;;;;5198972;28;20410;-68
2021/11/01 06:50:23;;;;;;;10.68;2.67;;;22.90;57.70;;;;;;5197103;28;20099;-68
2021/11/01 07:21:58;;;;;;;7.05;2.53;;;23.00;57.80;;;;;;5197091;28;20053;-69
2021/11/01 08:27:03;;;;;;;7.72;2.55;;;22.90;58.00;;;;;;5205651;28;20057;-67
2021/11/01 09:18:43;;;;;;;6.40;2.42;;;22.90;58.40;;;;;;5205125;28;20052;-67
2021/11/01 09:22:41;;;;;;;5.85;2.35;;;22.80;58.30;;;;;;5204015;28;20096;-67
2021/11/01 09:28:05;;;;;;;8.23;2.40;;;22.80;58.40;;;;;;5204956;28;20052;-67
2021/11/01 09:41:13;;;;;;;8.82;2.47;;;22.90;58.50;;;;;;5200304;28;20049;-67
2021/11/01 09:43:49;;;;;;;7.03;2.20;;;22.90;58.40;;;;;;5202916;28;20528;-67
2021/11/01 09:46:24;;;;;;;9.45;2.17;;;22.90;58.40;;;;;;5195608;28;20025;-68
2021/11/01 09:49:16;;;;;;;9.82;2.67;;;22.90;58.50;;;;;;5198695;28;20095;-68
2021/11/01 09:51:52;;;;;;;8.60;2.85;;;22.90;58.50;;;;;;5195370;28;20837;-67
2021/11/01 09:54:28;;;;;;;9.40;2.65;;;22.90;58.60;;;;;;5193711;28;20727;-68
2021/11/01 09:57:08;;;;;;;9.65;2.38;;;22.90;58.50;;;;;;5198602;28;20527;-68
2021/11/01 09:59:42;;;;;;;5.18;2.00;;;22.90;58.50;;;;;;5199670;28;20060;-68
2021/11/01 10:02:18;;;;;;;11.27;3.00;;;22.90;58.40;;;;;;5196677;28;20057;-68
2021/11/01 10:04:53;;;;;;;11.20;2.88;;;22.90;58.30;;;;;;5198698;28;20060;-68
2021/11/01 10:07:34;;;;;;;9.98;2.40;;;22.90;58.20;;;;;;5201320;28;20033;-68
2021/11/01 10:10:14;;;;;;;12.00;2.22;;;22.90;58.00;;;;;;5180821;28;21007;-69
2021/11/01 10:12:49;;;;;;;7.72;2.58;;;22.90;58.00;;;;;;5197909;28;20611;-67
2021/11/01 10:18:18;;;;;;;5.97;2.20;;;22.90;57.90;;;;;;5190134;28;20507;-69
2021/11/01 10:20:55;;;;;;;7.85;2.55;;;22.90;57.80;;;;;;5180566;28;20812;-68
2021/11/01 10:23:33;;;;;;;6.65;1.80;;;22.90;57.80;;;;;;5185569;28;20059;-68
2021/11/01 10:26:07;;;;;;;13.80;2.33;;;22.90;57.80;;;;;;5192243;28;20116;-68
2021/11/01 10:28:39;;;;;;;8.13;2.33;;;22.90;57.70;;;;;;5188925;28;20041;-68
2021/11/01 10:31:13;;;;;;;10.27;2.38;;;22.90;57.70;;;;;;5191120;28;20052;-68
2021/11/01 10:33:47;;;;;;;5.25;2.17;;;22.90;57.60;;;;;;5197755;28;21425;-68
2021/11/01 10:36:30;;;;;;;6.80;1.80;;;22.90;57.70;;;;;;5196718;28;20051;-68
2021/11/01 10:39:11;;;;;;;3.22;1.85;;;22.90;57.20;;;;;;5197496;28;20049;-68
2021/11/01 10:42:34;;;;;;;5.75;2.25;;;22.90;56.50;;;;;;5195686;28;20052;-68
2021/11/01 10:45:08;;;;;;;2.75;1.85;;;22.80;56.40;;;;;;5194482;28;20049;-68
2021/11/01 11:13:22;;;;;;;2.50;1.90;;;22.70;55.00;;;;;;5187738;28;20045;-68
2021/11/01 11:15:56;;;;;;;2.70;1.40;;;22.70;54.90;;;;;;5183158;28;20056;-69
2021/11/01 11:42:52;;;;;;;3.30;1.33;;;22.80;56.00;;;;;;5177372;28;20046;-69
2021/11/01 11:48:22;;;;;;;11.43;1.92;;;22.70;56.20;;;;;;5195064;28;20103;-68
2021/11/01 11:51:05;;;;;;;4.10;1.60;;;22.80;56.40;;;;;;5196145;28;20048;-68
2021/11/01 11:53:59;;;;;;;7.03;1.63;;;22.80;56.50;;;;;;5175328;28;20048;-69
2021/11/01 11:56:44;;;;;;;5.80;1.70;;;22.80;56.60;;;;;;5184943;28;20059;-70
2021/11/01 11:59:16;;;;;;;7.78;2.08;;;22.80;56.80;;;;;;5183341;28;20048;-69
2021/11/01 12:01:52;;;;;;;10.50;1.70;;;22.80;56.80;;;;;;5184975;28;20052;-70
2021/11/01 12:04:32;;;;;;;5.63;2.25;;;22.80;56.90;;;;;;5191668;28;20385;-70
2021/11/01 12:07:06;;;;;;;6.10;1.67;;;22.80;56.90;;;;;;5191643;28;20044;-70
2021/11/01 12:10:02;;;;;;;9.10;1.90;;;22.80;57.00;;;;;;5193880;28;20057;-71
2021/11/01 12:18:07;;;;;;;6.55;1.80;;;22.80;57.20;;;;;;5190941;28;20056;-68
2021/11/01 12:20:40;;;;;;;5.70;2.05;;;22.80;57.20;;;;;;5191849;28;20060;-68
2021/11/01 12:23:12;;;;;;;4.80;1.63;;;22.90;57.30;;;;;;5196714;28;20052;-68
2021/11/01 12:25:46;;;;;;;6.55;1.85;;;22.90;57.30;;;;;;5194884;28;20496;-69
2021/11/01 12:28:21;;;;;;;6.97;1.80;;;22.90;57.40;;;;;;5186072;28;20060;-69
2021/11/01 12:30:58;;;;;;;5.63;1.65;;;22.90;57.40;;;;;;5185771;28;20046;-68
2021/11/01 12:33:32;;;;;;;3.55;1.33;;;22.90;57.40;;;;;;5181715;28;20037;-68
2021/11/01 12:36:07;;;;;;;7.35;1.73;;;22.90;57.30;;;;;;5182502;28;20048;-68
2021/11/01 12:38:52;;;;;;;7.28;1.42;;;22.90;57.30;;;;;;5187059;28;20045;-68
2021/11/01 12:41:40;;;;;;;5.90;2.28;;;22.90;57.20;;;;;;5191187;28;20060;-69
2021/11/01 12:56:56;;;;;;;4.95;2.35;;;22.90;57.20;;;;;;5178571;28;20048;-68
2021/11/01 12:58:56;;;;;;;6.40;1.63;;;22.90;57.70;;;;;;5177141;28;20049;-69
2021/11/01 13:01:29;;;;;;;12.82;2.17;;;23.00;57.80;;;;;;5173830;28;20504;-69
2021/11/01 13:04:14;;;;;;;4.63;1.70;;;23.00;58.20;;;;;;5179868;28;20049;-68
2021/11/01 13:09:33;;;;;;;9.82;2.08;;;23.00;58.30;;;;;;5180823;28;20053;-68
2021/11/01 13:20:06;;;;;;;8.82;1.48;;;23.00;58.30;;;;;;5191625;28;20057;-69
2021/11/01 13:22:44;;;;;;;4.90;1.75;;;23.00;58.30;;;;;;5182761;28;21153;-70
2021/11/01 13:37:27;;;;;;;7.47;2.15;;;23.00;58.40;;;;;;5192552;28;20042;-70
2021/11/01 13:40:01;;;;;;;7.32;1.80;;;23.00;58.30;;;;;;5149957;28;20048;-71
2021/11/01 13:42:34;;;;;;;6.47;1.55;;;23.00;58.50;;;;;;5193712;28;20045;-71
2021/11/01 13:45:07;;;;;;;6.13;1.83;;;23.00;58.30;;;;;;5179693;28;20068;-71
2021/11/01 13:48:00;;;;;;;;;;;23.00;58.20;;;;;;5174286;28;20057;-71
2021/11/01 13:50:39;;;;;;;8.52;1.70;;;22.90;58.00;;;;;;5164931;28;19929;-71
2021/11/01 13:53:16;;;;;;;5.80;1.67;;;23.00;58.00;;;;;;5177124;28;20057;-70
2021/11/01 13:55:52;;;;;;;4.30;1.80;;;23.00;57.90;;;;;;5174073;28;20044;-69
2021/11/01 14:01:27;;;;;;;7.68;1.55;;;23.00;57.70;;;;;;5172153;28;20056;-71
2021/11/01 15:11:13;;;;;;;3.67;2.25;;;23.10;54.90;;;;;;5156569;28;20416;-68
2021/11/01 15:25:25;;;;;;;8.70;2.50;;;23.00;55.20;;;;;;5145042;28;20050;-69
2021/11/01 15:28:08;;;;;;;6.30;2.50;;;23.00;55.40;;;;;;5159813;28;21136;-70
2021/11/01 15:39:38;;;;;;;3.15;2.03;;;23.20;55.70;;;;;;5164702;28;20498;-70
2021/11/01 16:19:39;;;;;;;5.40;2.28;;;23.40;55.30;;;;;;5156269;28;21475;-69
2021/11/01 16:22:12;;;;;;;4.63;1.77;;;23.40;55.30;;;;;;5176713;28;20409;-70
2021/11/01 16:24:46;;;;;;;7.18;1.98;;;23.40;56.00;;;;;;5177663;28;20049;-70
2021/11/01 16:27:20;;;;;;;4.55;1.70;;;23.40;55.30;;;;;;5177349;28;20045;-70
2021/11/01 16:30:12;;;;;;;6.20;1.70;;;23.40;55.30;;;;;;5178847;28;20045;-70
2021/11/01 16:32:47;;;;;;;3.97;1.80;;;23.40;55.30;;;;;;5180265;28;20053;-71
2021/11/01 16:35:24;;;;;;;5.68;1.77;;;23.40;55.30;;;;;;5181325;28;20041;-71
2021/11/01 16:40:29;;;;;;;4.43;1.80;;;23.40;55.30;;;;;;5174974;28;20053;-71
2021/11/01 16:43:09;;;;;;;4.10;1.85;;;23.40;55.30;;;;;;5174015;28;20059;-71
2021/11/01 16:45:44;;;;;;;5.40;1.67;;;23.40;55.30;;;;;;5156380;28;20049;-70
2021/11/01 16:48:21;;;;;;;6.25;2.00;;;23.40;55.30;;;;;;5160728;28;22588;-71
2021/11/01 16:50:55;;;;;;;4.72;1.63;;;23.40;55.30;;;;;;5158549;28;20081;-71
2021/11/01 16:53:29;;;;;;;4.78;2.35;;;23.40;55.90;;;;;;5165193;28;20716;-71
2021/11/01 16:56:19;;;;;;;8.80;1.92;;;23.40;56.10;;;;;;5164129;28;26631;-71
2021/11/01 16:58:58;;;;;;;6.90;1.63;;;23.40;56.20;;;;;;5167711;28;20489;-71
2021/11/01 17:01:30;;;;;;;4.15;1.35;;;23.40;56.30;;;;;;5174113;28;20048;-71
2021/11/01 17:04:08;;;;;;;5.03;1.73;;;23.40;56.10;;;;;;5174101;28;20052;-71
2021/11/01 17:07:01;;;;;;;7.72;2.05;;;23.50;56.40;;;;;;5170816;28;20045;-70
2021/11/01 17:10:15;;;;;;;4.30;1.80;;;23.50;56.20;;;;;;5149969;28;20529;-70
2021/11/01 18:39:05;;;;;;;10.18;7.63;;;24.00;55.60;;;;;;5143670;28;20972;-70
2021/11/01 18:42:43;;;;;;;13.93;7.70;;;24.00;55.60;;;;;;5158202;28;20056;-69
2021/11/01 18:53:26;;;;;;;14.65;7.80;;;24.00;55.70;;;;;;5155492;28;20049;-72
2021/11/01 18:56:01;;;;;;;13.45;8.02;;;24.00;55.70;;;;;;5184332;28;20044;-72
2021/11/01 18:58:36;;;;;;;11.45;7.63;;;23.90;55.60;;;;;;5168337;28;20044;-73
2021/11/01 19:01:11;;;;;;;12.70;8.00;;;23.90;55.60;;;;;;5170435;28;20049;-72
2021/11/01 19:03:49;;;;;;;12.52;7.70;;;23.90;55.70;;;;;;5168340;28;20048;-72
2021/11/01 19:06:37;;;;;;;11.13;8.40;;;23.90;55.70;;;;;;5168802;28;20051;-73
2021/11/01 19:09:23;;;;;;;10.93;7.53;;;23.90;55.70;;;;;;5164446;28;20060;-72
2021/11/01 19:13:16;;;;;;;12.77;8.13;;;23.90;55.70;;;;;;5176148;28;20049;-71
2021/11/01 20:13:04;;;;;;;10.40;6.45;;;24.20;55.70;;;;;;5192986;28;20163;-69
2021/11/01 21:25:23;;;;;;;14.57;4.15;;;23.70;54.80;;;;;;5214797;28;20970;-66
2021/11/01 21:27:55;;;;;;;11.77;4.45;;;23.60;54.30;;;;;;5212927;28;20059;-68
2021/11/01 21:30:28;;;;;;;21.92;4.40;;;23.50;54.80;;;;;;5212920;28;20355;-68
2021/11/01 21:33:00;;;;;;;18.50;4.30;;;23.50;55.10;;;;;;5215557;28;20048;-69
2021/11/01 21:35:41;;;;;;;11.68;3.65;;;23.40;55.20;;;;;;5212014;28;20055;-69
2021/11/01 21:38:14;;;;;;;14.13;3.85;;;23.40;55.30;;;;;;5214351;28;20045;-68
2021/11/01 21:40:47;;;;;;;14.10;3.80;;;23.40;55.40;;;;;;5214981;28;20060;-69
2021/11/01 21:43:21;;;;;;;13.55;4.15;;;23.30;55.30;;;;;;5217026;28;20131;-69
2021/11/01 21:45:54;;;;;;;14.50;3.92;;;23.30;55.50;;;;;;5216312;28;20041;-69
2021/11/01 21:48:26;;;;;;;6.63;3.78;;;23.30;55.50;;;;;;5217367;28;20059;-69
2021/11/01 21:50:59;;;;;;;12.43;4.07;;;23.20;55.40;;;;;;5212553;28;20045;-69
2021/11/01 21:53:34;;;;;;;19.60;4.00;;;23.20;55.50;;;;;;5230175;28;20523;-69
2021/11/01 21:56:11;;;;;;;7.63;3.38;;;23.20;55.50;;;;;;5227275;28;20536;-69
2021/11/01 22:01:29;;;;;;;7.60;3.08;;;23.20;55.60;;;;;;5205595;28;20056;-69
2021/11/01 22:21:38;;;;;;;12.43;3.45;;;23.00;55.70;;;;;;5221944;28;20098;-69
2021/11/01 22:26:48;;;;;;;6.35;3.03;;;22.90;55.70;;;;;;5226146;28;20052;-69
2021/11/01 22:32:41;;;;;;;15.23;2.65;;;22.90;55.80;;;;;;5219546;28;20044;-69
2021/11/01 22:38:27;;;;;;;11.00;2.58;;;22.80;55.80;;;;;;5228381;28;20519;-69
2021/11/01 22:41:28;;;;;;;6.95;2.40;;;22.80;55.80;;;;;;5222246;28;20659;-69
2021/11/01 22:58:40;;;;;;;8.68;2.38;;;22.70;55.80;;;;;;5206709;28;20543;-69
2021/11/01 23:01:21;;;;;;;4.28;2.17;;;22.70;55.80;;;;;;5215500;28;20487;-69
2021/11/01 23:31:25;;;;;;;5.03;2.00;;;22.70;55.90;;;;;;5217375;28;20798;-69
2021/11/01 23:32:25;;;;;;;8.35;2.15;;;22.60;56.10;;;;;;5221886;28;20511;-69
2021/11/01 23:34:58;;;;;;;6.43;1.85;;;22.60;56.10;;;;;;5222198;28;20180;-68
2021/11/01 23:37:30;;;;;;;6.88;1.70;;;22.50;56.10;;;;;;5221629;28;20045;-68
2021/11/01 23:40:03;;;;;;;7.53;2.55;;;22.60;56.00;;;;;;5220083;28;20052;-69
2021/11/01 23:42:35;;;;;;;10.57;2.00;;;22.50;55.90;;;;;;5221113;28;20726;-69
2021/11/01 23:45:08;;;;;;;4.55;1.60;;;22.60;56.00;;;;;;5222162;28;20067;-68
2021/11/01 23:47:40;;;;;;;5.93;1.70;;;22.50;55.90;;;;;;5222924;28;20047;-68
2021/11/01 23:50:13;;;;;;;3.80;1.55;;;22.50;55.80;;;;;;5221476;28;20295;-69
2021/11/01 23:53:03;;;;;;;6.47;1.65;;;22.50;55.80;;;;;;5226264;28;20056;-69
2021/11/01 23:55:35;;;;;;;8.68;1.95;;;22.50;55.80;;;;;;5222328;28;20080;-69
2021/11/01 23:58:08;;;;;;;3.00;1.42;;;22.50;55.90;;;;;;5223503;28;20497;-69
